createdAt,value
2023-05-23T00:02:13.910Z,10.00
2023-05-23T00:04:42.951Z,9.52
2023-05-23T00:07:11.744Z,10.82
2023-05-23T00:09:41.384Z,9.23
2023-05-23T00:12:09.829Z,9.05
2023-05-23T00:14:40.244Z,8.27
2023-05-23T00:17:10.696Z,11.15
2023-05-23T00:19:39.007Z,9.23
2023-05-23T00:22:08.134Z,10.70
2023-05-23T00:24:36.430Z,9.82
2023-05-23T00:27:06.682Z,10.77
2023-05-23T00:29:35.349Z,9.75
2023-05-23T00:32:03.656Z,11.02
2023-05-23T00:34:31.749Z,10.02
2023-05-23T00:36:59.868Z,11.30
2023-05-23T00:39:31.245Z,11.35
2023-05-23T00:41:59.771Z,9.25
2023-05-23T00:44:29.302Z,12.05
2023-05-23T00:46:59.059Z,12.60
2023-05-23T00:49:28.269Z,11.18
2023-05-23T00:51:56.715Z,12.35
2023-05-23T00:54:31.253Z,10.32
2023-05-23T00:56:59.985Z,9.60
2023-05-23T00:59:30.206Z,10.70
2023-05-23T01:02:00.559Z,11.25
2023-05-23T01:04:28.965Z,10.35
2023-05-23T01:06:57.488Z,9.90
2023-05-23T01:09:30.190Z,10.02
2023-05-23T01:12:15.916Z,11.25
2023-05-23T01:14:50.955Z,11.65
2023-05-23T01:17:25.301Z,13.45
2023-05-23T01:20:02.266Z,11.73
2023-05-23T01:22:44.290Z,10.00
2023-05-23T01:25:29.285Z,8.68
2023-05-23T01:28:02.145Z,10.27
2023-05-23T01:30:34.201Z,9.73
2023-05-23T01:33:03.296Z,11.63
2023-05-23T01:35:33.313Z,14.77
2023-05-23T01:38:02.104Z,13.02
2023-05-23T01:40:30.891Z,10.05
2023-05-23T01:43:03.081Z,10.40
2023-05-23T01:45:32.092Z,12.68
2023-05-23T01:48:01.108Z,10.75
2023-05-23T01:50:30.497Z,10.63
2023-05-23T01:52:58.874Z,13.15
2023-05-23T01:55:27.794Z,10.45
2023-05-23T01:57:57.641Z,8.98
2023-05-23T02:00:27.214Z,10.63
2023-05-23T02:02:55.415Z,11.52
2023-05-23T02:05:23.893Z,13.35
2023-05-23T02:08:03.568Z,11.60
2023-05-23T02:10:32.155Z,12.27
2023-05-23T02:13:01.467Z,11.93
2023-05-23T02:15:32.469Z,10.80
2023-05-23T02:18:02.168Z,10.95
2023-05-23T02:20:30.533Z,10.45
2023-05-23T02:22:58.848Z,11.27
2023-05-23T02:25:26.960Z,10.80
2023-05-23T02:27:55.163Z,9.20
2023-05-23T02:30:33.523Z,12.65
2023-05-23T02:33:05.779Z,11.23
2023-05-23T02:35:34.433Z,11.82
2023-05-23T02:38:35.203Z,11.18
2023-05-23T02:41:25.221Z,12.63
2023-05-23T02:44:31.763Z,11.68
2023-05-23T02:47:02.928Z,10.32
2023-05-23T02:49:50.029Z,11.43
2023-05-23T02:53:14.098Z,9.93
2023-05-23T02:55:39.963Z,11.48
2023-05-23T02:58:52.862Z,12.83
2023-05-23T03:02:09.617Z,13.18
2023-05-23T03:05:02.810Z,9.85
2023-05-23T03:08:24.288Z,10.73
2023-05-23T03:11:35.665Z,11.70
2023-05-23T03:21:14.833Z,10.50
2023-05-23T03:25:03.790Z,10.70
2023-05-23T03:28:18.286Z,12.37
2023-05-23T03:34:51.706Z,12.13
2023-05-23T03:38:30.591Z,13.63
2023-05-23T03:41:33.319Z,12.70
2023-05-23T03:44:38.379Z,12.70
2023-05-23T03:50:51.181Z,12.20
2023-05-23T03:54:00.618Z,12.53
2023-05-23T03:57:04.587Z,13.47
2023-05-23T04:02:18.364Z,11.20
2023-05-23T04:05:25.660Z,13.13
2023-05-23T04:09:26.507Z,12.73
2023-05-23T04:12:20.776Z,12.05
2023-05-23T04:14:58.689Z,14.70
2023-05-23T04:17:37.795Z,11.73
2023-05-23T04:20:17.999Z,11.73
2023-05-23T04:22:50.810Z,12.10
2023-05-23T04:25:29.323Z,12.23
2023-05-23T04:28:06.013Z,13.27
2023-05-23T04:30:34.836Z,10.88
2023-05-23T04:33:04.089Z,11.07
2023-05-23T04:35:34.642Z,11.65
2023-05-23T04:38:04.121Z,11.27
2023-05-23T04:40:32.497Z,14.27
2023-05-23T04:43:02.496Z,12.93
2023-05-23T04:45:30.777Z,10.85
2023-05-23T04:47:59.287Z,12.30
2023-05-23T04:50:32.151Z,11.57
2023-05-23T04:53:00.326Z,11.25
2023-05-23T04:55:28.512Z,10.68
2023-05-23T04:57:56.874Z,11.70
2023-05-23T05:00:26.808Z,12.07
2023-05-23T05:02:55.048Z,13.35
2023-05-23T05:05:24.424Z,14.18
2023-05-23T05:07:52.578Z,10.90
2023-05-23T05:10:21.868Z,11.45
2023-05-23T05:12:50.610Z,12.73
2023-05-23T05:15:30.885Z,12.05
2023-05-23T05:18:06.755Z,12.25
2023-05-23T05:20:46.262Z,11.82
2023-05-23T05:23:14.408Z,13.10
2023-05-23T05:25:42.801Z,13.40
2023-05-23T05:28:10.914Z,11.80
2023-05-23T05:30:54.640Z,12.75
2023-05-23T05:33:25.037Z,13.23
2023-05-23T05:36:03.699Z,12.05
2023-05-23T05:38:31.820Z,13.45
2023-05-23T05:41:00.102Z,11.85
2023-05-23T05:43:33.202Z,11.98
2023-05-23T05:46:01.508Z,14.40
2023-05-23T05:48:33.321Z,13.10
2023-05-23T05:51:03.208Z,13.95
2023-05-23T05:54:01.668Z,12.10
2023-05-23T05:59:29.473Z,18.02
2023-05-23T06:01:59.223Z,20.70
2023-05-23T06:04:28.870Z,22.13
2023-05-23T06:07:14.390Z,22.92
2023-05-23T06:09:44.909Z,25.50
2023-05-23T06:12:13.016Z,23.27
2023-05-23T06:14:41.139Z,17.10
2023-05-23T06:17:10.861Z,11.75
2023-05-23T06:19:40.436Z,12.85
2023-05-23T06:22:08.598Z,14.70
2023-05-23T06:24:36.729Z,14.10
2023-05-23T06:27:09.936Z,12.93
2023-05-23T06:29:38.089Z,13.38
2023-05-23T06:32:15.359Z,13.00
2023-05-23T06:34:44.961Z,14.93
2023-05-23T06:37:13.078Z,13.82
2023-05-23T06:39:41.264Z,13.95
2023-05-23T06:42:16.430Z,15.23
2023-05-23T06:44:44.590Z,13.63
2023-05-23T06:47:12.846Z,13.02
2023-05-23T06:49:40.966Z,15.10
2023-05-23T06:52:10.647Z,16.25
2023-05-23T06:54:47.900Z,15.88
2023-05-23T06:57:16.315Z,12.90
2023-05-23T06:59:49.325Z,15.55
2023-05-23T07:02:17.484Z,13.85
2023-05-23T07:04:47.062Z,15.60
2023-05-23T07:07:16.671Z,14.90
2023-05-23T07:09:44.814Z,14.23
2023-05-23T07:12:13.035Z,15.88
2023-05-23T07:14:42.252Z,17.35
2023-05-23T07:17:11.167Z,14.10
2023-05-23T07:19:40.422Z,15.18
2023-05-23T07:22:08.833Z,15.30
2023-05-23T07:24:38.411Z,15.30
2023-05-23T07:27:06.991Z,16.70
2023-05-23T07:29:35.206Z,18.33
2023-05-23T07:32:08.358Z,16.58
2023-05-23T07:34:36.512Z,15.90
2023-05-23T07:37:04.723Z,13.73
2023-05-23T07:39:33.276Z,15.30
2023-05-23T07:42:02.877Z,14.48
2023-05-23T07:44:31.021Z,14.32
2023-05-23T07:47:00.404Z,16.30
2023-05-23T07:49:28.624Z,17.23
2023-05-23T07:51:56.818Z,15.60
2023-05-23T07:54:24.930Z,16.98
2023-05-23T07:56:54.463Z,17.20
2023-05-23T07:59:24.064Z,17.92
2023-05-23T08:01:52.226Z,17.77
2023-05-23T08:04:20.445Z,17.80
2023-05-23T08:07:04.283Z,17.25
2023-05-23T08:09:33.488Z,16.45
2023-05-23T08:12:01.574Z,18.30
2023-05-23T08:14:50.782Z,19.08
2023-05-23T08:17:20.374Z,17.85
2023-05-23T08:19:48.686Z,17.85
2023-05-23T08:22:17.035Z,19.77
2023-05-23T08:24:45.144Z,20.38
2023-05-23T08:27:13.259Z,19.92
2023-05-23T08:29:44.297Z,20.27
2023-05-23T08:32:12.530Z,17.80
2023-05-23T08:34:42.167Z,17.98
2023-05-23T08:37:10.328Z,18.15
2023-05-23T08:39:44.298Z,19.60
2023-05-23T08:42:12.437Z,19.02
2023-05-23T08:44:42.129Z,19.17
2023-05-23T08:47:11.216Z,18.63
2023-05-23T08:49:40.253Z,19.63
2023-05-23T08:52:13.282Z,18.63
2023-05-23T08:54:42.853Z,15.85
2023-05-23T08:57:11.385Z,20.20
2023-05-23T08:59:40.710Z,19.10
2023-05-23T09:02:13.210Z,16.67
2023-05-23T09:04:41.395Z,16.77
2023-05-23T09:07:11.182Z,16.63
2023-05-23T09:09:39.392Z,17.55
2023-05-23T09:12:22.499Z,18.60
2023-05-23T09:14:50.733Z,17.17
2023-05-23T09:17:21.537Z,19.77
2023-05-23T09:19:49.833Z,21.25
2023-05-23T09:22:17.972Z,21.75
2023-05-23T09:24:46.086Z,19.92
2023-05-23T09:27:14.232Z,20.30
2023-05-23T09:29:42.354Z,17.40
2023-05-23T09:32:14.474Z,19.25
2023-05-23T09:34:56.265Z,18.50
2023-05-23T09:37:32.712Z,19.60
2023-05-23T09:40:03.201Z,17.88
2023-05-23T09:42:35.194Z,15.15
2023-05-23T09:45:04.612Z,18.23
2023-05-23T09:47:36.397Z,17.83
2023-05-23T09:50:08.801Z,18.65
2023-05-23T09:52:38.992Z,17.88
2023-05-23T09:55:08.020Z,19.48
2023-05-23T09:57:41.985Z,20.27
2023-05-23T10:00:12.465Z,16.75
2023-05-23T10:02:56.594Z,20.23
2023-05-23T10:05:39.697Z,19.83
2023-05-23T10:08:12.091Z,17.17
2023-05-23T10:11:24.994Z,17.63
2023-05-23T10:13:53.325Z,18.58
2023-05-23T10:16:26.325Z,18.45
2023-05-23T10:18:58.643Z,16.75
2023-05-23T10:21:39.711Z,16.73
2023-05-23T10:24:09.863Z,15.38
2023-05-23T10:26:38.485Z,18.98
2023-05-23T10:29:21.358Z,17.85
2023-05-23T10:31:54.154Z,16.60
2023-05-23T10:34:31.194Z,18.80
2023-05-23T10:37:08.349Z,17.98
2023-05-23T10:39:47.712Z,19.50
2023-05-23T10:42:20.888Z,16.85
2023-05-23T10:44:49.050Z,17.33
2023-05-23T10:47:28.857Z,17.00
2023-05-23T10:49:57.404Z,15.57
2023-05-23T10:52:27.754Z,17.52
2023-05-23T10:54:56.697Z,15.60
2023-05-23T10:57:28.186Z,16.88
2023-05-23T10:59:56.850Z,17.80
2023-05-23T11:02:28.170Z,16.63
2023-05-23T11:05:20.827Z,14.40
2023-05-23T11:08:11.683Z,17.77
2023-05-23T11:10:57.034Z,16.58
2023-05-23T11:13:25.342Z,15.63
2023-05-23T11:15:53.577Z,14.60
2023-05-23T11:18:23.700Z,13.70
2023-05-23T11:20:54.528Z,13.43
2023-05-23T11:23:25.696Z,10.50
2023-05-23T11:25:56.765Z,11.15
2023-05-23T11:28:25.060Z,11.38
2023-05-23T11:30:53.564Z,13.38
2023-05-23T11:33:21.809Z,11.20
2023-05-23T11:35:57.921Z,9.77
2023-05-23T11:38:27.675Z,12.02
2023-05-23T11:40:55.944Z,11.43
2023-05-23T11:43:24.062Z,12.65
2023-05-23T11:45:52.209Z,12.63
2023-05-23T11:48:20.351Z,12.55
2023-05-23T11:50:50.064Z,12.65
2023-05-23T11:53:21.574Z,14.48
2023-05-23T11:55:56.128Z,13.55
2023-05-23T11:58:27.754Z,12.02
2023-05-23T12:01:01.607Z,11.98
2023-05-23T12:03:29.983Z,11.50
2023-05-23T12:05:58.685Z,14.35
2023-05-23T12:08:27.016Z,12.38
2023-05-23T12:10:59.372Z,13.65
2023-05-23T12:13:34.372Z,12.82
2023-05-23T12:16:04.764Z,13.07
2023-05-23T12:18:34.154Z,13.40
2023-05-23T12:21:03.315Z,15.38
2023-05-23T12:23:34.744Z,11.93
2023-05-23T12:26:07.116Z,13.95
2023-05-23T12:28:39.570Z,11.38
2023-05-23T12:31:12.473Z,14.13
2023-05-23T12:33:43.969Z,12.73
2023-05-23T12:36:12.655Z,13.15
2023-05-23T12:38:45.613Z,13.07
2023-05-23T12:41:19.556Z,13.02
2023-05-23T12:43:52.731Z,15.35
2023-05-23T12:46:22.039Z,16.45
2023-05-23T12:48:51.506Z,14.05
2023-05-23T12:51:20.468Z,14.10
2023-05-23T12:53:48.854Z,13.75
2023-05-23T12:56:18.408Z,14.57
2023-05-23T12:58:46.565Z,13.55
2023-05-23T13:01:22.383Z,13.25
2023-05-23T13:03:50.722Z,14.38
2023-05-23T13:06:18.957Z,11.73
2023-05-23T13:08:47.882Z,11.15
2023-05-23T13:11:17.693Z,12.23
2023-05-23T13:13:46.705Z,13.43
2023-05-23T13:16:14.869Z,15.30
2023-05-23T13:18:43.071Z,14.43
2023-05-23T13:21:11.223Z,16.52
2023-05-23T13:23:45.378Z,15.05
2023-05-23T13:26:14.549Z,15.20
2023-05-23T13:28:44.456Z,16.05
2023-05-23T13:31:12.945Z,19.30
2023-05-23T13:33:41.996Z,19.50
2023-05-23T13:36:10.801Z,19.85
2023-05-23T13:38:45.839Z,20.17
2023-05-23T13:41:14.132Z,19.35
2023-05-23T13:43:43.617Z,22.40
2023-05-23T13:46:11.862Z,23.83
2023-05-23T13:48:40.628Z,20.63
2023-05-23T13:51:08.932Z,23.95
2023-05-23T13:53:37.417Z,22.70
2023-05-23T13:56:05.590Z,27.55
2023-05-23T13:58:33.804Z,27.63
2023-05-23T14:01:17.601Z,21.48
2023-05-23T14:03:45.988Z,21.90
2023-05-23T14:06:17.036Z,23.77
2023-05-23T14:08:45.179Z,21.02
2023-05-23T14:11:13.470Z,22.00
2023-05-23T14:13:41.674Z,23.40
2023-05-23T14:16:10.096Z,20.25
2023-05-23T14:18:39.648Z,21.85
2023-05-23T14:21:07.741Z,18.63
2023-05-23T14:23:35.874Z,21.45
2023-05-23T14:26:12.006Z,18.42
2023-05-23T14:28:40.184Z,18.27
2023-05-23T14:31:08.436Z,18.70
2023-05-23T14:33:46.013Z,16.90
2023-05-23T14:36:14.141Z,20.75
2023-05-23T14:38:45.542Z,21.23
2023-05-23T14:41:27.232Z,17.45
2023-05-23T14:43:55.442Z,19.95
2023-05-23T14:46:23.639Z,20.40
2023-05-23T14:48:53.524Z,21.02
2023-05-23T14:51:43.053Z,19.02
2023-05-23T14:54:12.956Z,16.70
2023-05-23T14:56:41.524Z,20.63
2023-05-23T14:59:09.728Z,17.58
2023-05-23T15:01:40.620Z,20.63
2023-05-23T15:04:15.857Z,20.58
2023-05-23T15:06:44.306Z,18.58
2023-05-23T15:09:12.802Z,19.92
2023-05-23T15:11:49.446Z,18.25
2023-05-23T15:14:17.807Z,21.73
2023-05-23T15:16:53.210Z,18.15
2023-05-23T15:19:22.817Z,19.63
2023-05-23T15:21:51.911Z,18.30
2023-05-23T15:24:21.277Z,20.48
2023-05-23T15:26:49.551Z,18.23
2023-05-23T15:29:27.620Z,18.30
2023-05-23T15:32:01.641Z,17.65
2023-05-23T15:34:31.217Z,17.13
2023-05-23T15:37:01.406Z,19.55
2023-05-23T15:39:29.909Z,18.50
2023-05-23T15:42:09.708Z,17.67
2023-05-23T15:44:39.964Z,18.58
2023-05-23T15:47:30.135Z,18.13
2023-05-23T15:49:59.795Z,18.65
2023-05-23T15:52:29.344Z,17.60
2023-05-23T15:54:58.173Z,14.88
2023-05-23T15:57:26.361Z,18.08
2023-05-23T16:00:07.156Z,19.83
2023-05-23T16:02:51.540Z,19.15
2023-05-23T16:05:25.857Z,16.27
2023-05-23T16:07:53.957Z,16.98
2023-05-23T16:10:24.012Z,16.65
2023-05-23T16:12:53.336Z,18.05
2023-05-23T16:15:22.165Z,15.77
2023-05-23T16:17:50.907Z,19.02
2023-05-23T16:20:22.223Z,17.00
2023-05-23T16:22:57.862Z,15.13
2023-05-23T16:25:27.108Z,17.52
2023-05-23T16:27:58.242Z,16.10
2023-05-23T16:30:28.447Z,15.57
2023-05-23T16:32:57.749Z,14.77
2023-05-23T16:35:31.026Z,17.88
2023-05-23T16:38:03.510Z,15.40
2023-05-23T16:40:39.015Z,17.80
2023-05-23T16:43:12.694Z,15.90
2023-05-23T16:45:42.053Z,16.77
2023-05-23T16:48:30.730Z,16.45
2023-05-23T16:51:05.271Z,15.18
2023-05-23T16:53:35.986Z,17.63
2023-05-23T16:56:06.801Z,13.80
2023-05-23T16:58:38.353Z,14.00
2023-05-23T17:01:09.109Z,11.68
2023-05-23T17:03:37.840Z,12.13
2023-05-23T17:06:19.377Z,9.73
2023-05-23T17:08:52.065Z,10.80
2023-05-23T17:11:22.363Z,9.88
2023-05-23T17:13:58.473Z,12.25
2023-05-23T17:16:36.083Z,9.15
2023-05-23T17:19:10.729Z,7.88
2023-05-23T17:21:41.259Z,10.20
2023-05-23T17:24:11.058Z,12.10
2023-05-23T17:26:54.299Z,8.57
2023-05-23T17:29:22.898Z,8.88
2023-05-23T17:31:51.852Z,8.23
2023-05-23T17:34:22.077Z,9.93
2023-05-23T17:36:50.396Z,7.60
2023-05-23T17:39:30.605Z,8.43
2023-05-23T17:42:07.057Z,8.70
2023-05-23T17:44:38.409Z,7.40
2023-05-23T17:47:07.141Z,6.72
2023-05-23T17:49:35.958Z,8.52
2023-05-23T17:52:10.183Z,7.50
2023-05-23T17:54:42.878Z,8.07
2023-05-23T17:57:18.008Z,9.80
2023-05-23T17:59:55.120Z,7.90
2023-05-23T18:02:27.097Z,8.25
2023-05-23T18:04:56.571Z,8.57
2023-05-23T18:07:25.968Z,11.35
2023-05-23T18:09:59.635Z,6.47
2023-05-23T18:12:36.358Z,9.45
2023-05-23T18:15:04.871Z,7.78
2023-05-23T18:17:34.394Z,7.07
2023-05-23T18:20:07.222Z,7.55
2023-05-23T18:22:41.426Z,6.72
2023-05-23T18:25:12.099Z,7.38
2023-05-23T18:27:45.391Z,7.60
2023-05-23T18:30:14.922Z,7.68
2023-05-23T18:32:44.152Z,6.78
2023-05-23T18:35:12.338Z,6.40
2023-05-23T18:37:43.678Z,6.30
2023-05-23T18:40:13.673Z,6.50
2023-05-23T18:42:41.809Z,7.95
2023-05-23T18:45:11.675Z,6.55
2023-05-23T18:47:39.959Z,7.72
2023-05-23T18:50:09.254Z,8.07
2023-05-23T18:52:37.528Z,6.28
2023-05-23T18:55:06.776Z,6.22
2023-05-23T18:57:36.301Z,7.72
2023-05-23T19:00:07.462Z,6.00
2023-05-23T19:02:45.862Z,5.97
2023-05-23T19:05:29.443Z,6.28
2023-05-23T19:08:04.400Z,6.78
2023-05-23T19:10:33.787Z,6.38
2023-05-23T19:13:09.206Z,6.05
2023-05-23T19:15:37.366Z,7.78
2023-05-23T19:18:05.900Z,7.07
2023-05-23T19:20:36.351Z,5.80
2023-05-23T19:23:06.010Z,6.57
2023-05-23T19:25:42.136Z,5.80
2023-05-23T19:28:11.785Z,6.00
2023-05-23T19:30:41.085Z,6.22
2023-05-23T19:33:09.428Z,6.50
2023-05-23T19:35:41.321Z,5.65
2023-05-23T19:38:11.774Z,8.13
2023-05-23T19:40:51.312Z,5.43
2023-05-23T19:43:30.428Z,5.43
2023-05-23T19:46:10.816Z,6.57
2023-05-23T19:48:41.129Z,5.47
2023-05-23T19:51:10.749Z,6.43
2023-05-23T19:53:43.165Z,6.55
2023-05-23T19:56:18.501Z,7.60
2023-05-23T19:58:55.420Z,5.82
2023-05-23T20:01:32.763Z,5.60
2023-05-23T20:04:01.705Z,7.13
2023-05-23T20:06:35.800Z,6.65
2023-05-23T20:09:04.005Z,5.85
2023-05-23T20:11:32.228Z,8.77
2023-05-23T20:14:13.335Z,6.13
2023-05-23T20:16:46.030Z,5.85
2023-05-23T20:19:14.701Z,6.22
2023-05-23T20:21:44.036Z,6.50
2023-05-23T20:24:15.132Z,6.35
2023-05-23T20:26:43.355Z,8.43
2023-05-23T20:29:14.120Z,6.50
2023-05-23T20:31:48.379Z,5.90
2023-05-23T20:34:18.812Z,6.53
2023-05-23T20:36:47.455Z,6.03
2023-05-23T20:39:16.238Z,5.68
2023-05-23T20:41:45.615Z,6.43
2023-05-23T20:44:38.180Z,5.68
2023-05-23T20:47:06.973Z,6.25
2023-05-23T20:49:37.433Z,5.60
2023-05-23T20:52:06.588Z,6.65
2023-05-23T20:54:42.717Z,5.85
2023-05-23T20:57:16.010Z,6.10
2023-05-23T20:59:46.196Z,6.30
2023-05-23T21:02:15.259Z,6.63
2023-05-23T21:04:44.164Z,5.63
2023-05-23T21:07:13.414Z,6.13
2023-05-23T21:09:42.088Z,6.07
2023-05-23T21:12:19.382Z,6.07
2023-05-23T21:14:49.214Z,5.95
2023-05-23T21:17:19.670Z,7.28
2023-05-23T21:20:07.196Z,6.53
2023-05-23T21:22:41.048Z,6.85
2023-05-23T21:25:24.422Z,5.75
2023-05-23T21:27:53.635Z,6.35
2023-05-23T21:30:33.448Z,7.20
2023-05-23T21:33:08.492Z,6.60
2023-05-23T21:35:53.809Z,6.68
2023-05-23T21:38:29.804Z,9.65
2023-05-23T21:41:05.588Z,6.80
2023-05-23T21:43:36.291Z,8.02
2023-05-23T21:46:18.352Z,7.88
2023-05-23T21:48:46.910Z,7.18
2023-05-23T21:51:18.634Z,8.20
2023-05-23T21:53:55.201Z,6.78
2023-05-23T21:56:37.002Z,13.20
2023-05-23T21:59:07.340Z,8.32
2023-05-23T22:01:38.142Z,9.02
2023-05-23T22:04:09.672Z,8.40
2023-05-23T22:06:41.365Z,7.85
2023-05-23T22:09:11.624Z,9.13
2023-05-23T22:11:46.787Z,8.82
2023-05-23T22:14:36.917Z,9.35
2023-05-23T22:17:14.298Z,9.52
2023-05-23T22:19:48.585Z,8.32
2023-05-23T22:22:24.057Z,8.20
2023-05-23T22:24:55.015Z,7.32
2023-05-23T22:27:23.319Z,7.88
2023-05-23T22:29:52.294Z,8.55
2023-05-23T22:32:23.187Z,7.78
2023-05-23T22:35:09.145Z,8.25
2023-05-23T22:37:37.686Z,7.88
2023-05-23T22:40:07.490Z,7.18
2023-05-23T22:42:36.802Z,8.93
2023-05-23T22:45:06.003Z,7.25
2023-05-23T22:47:37.908Z,8.48
2023-05-23T22:50:07.111Z,8.30
2023-05-23T22:52:50.774Z,7.57
2023-05-23T22:55:20.254Z,7.53
2023-05-23T22:58:14.236Z,7.80
2023-05-23T23:00:50.665Z,8.30
2023-05-23T23:03:29.824Z,7.38
2023-05-23T23:05:59.607Z,7.28
2023-05-23T23:08:36.123Z,8.10
2023-05-23T23:11:10.432Z,8.23
2023-05-23T23:13:38.812Z,9.90
2023-05-23T23:16:08.743Z,8.70
2023-05-23T23:18:41.409Z,7.22
2023-05-23T23:21:10.848Z,8.02
2023-05-23T23:23:45.623Z,8.38
2023-05-23T23:26:21.689Z,7.53
2023-05-23T23:28:55.938Z,7.65
2023-05-23T23:31:29.894Z,8.00
2023-05-23T23:33:59.871Z,8.52
2023-05-23T23:36:29.160Z,8.27
2023-05-23T23:39:06.537Z,8.02
2023-05-23T23:41:35.234Z,7.20
2023-05-23T23:44:06.062Z,9.82
2023-05-23T23:46:34.522Z,9.02
2023-05-23T23:49:05.260Z,7.90
2023-05-23T23:51:33.770Z,7.82
2023-05-23T23:54:02.593Z,8.77
2023-05-23T23:56:31.093Z,9.07
2023-05-23T23:58:59.499Z,7.93
